• Join FlightAware (Why Join?)
  • Login
  • US Flag 
06:51PM EST


 

Airport Tracker/Info


-or-


 

Live Flight TrackerFlight Track Log ✈ NKS470 ✈ 31-Jul-2014 ✈ KLAS - KDFW

Flight Track Log - Related Links

Times and Time Zones

All times are in EDT time to prevent confusion due to time zone crossing. See the NKS470 flight status page for this flight to view local times or setup timezone preferences in your user account.

Time Position Orientation Groundspeed Altitude Reporting Facility
EDT Latitude Longitude Course Direction KTS MPH feet Rate Location/Type
02:34PM 36.0761 -115.1676 269° West 160 184 3,300  Level FlightAware ADS-B (KVGT)
02:35PM 36.0762 -115.2096 271° West 205 236 4,500 1,620 Climbing FlightAware ADS-B (KVGT)
02:36PM 36.0415 -115.2691 202° Southwest 273 314 6,000 1,920 Climbing FlightAware ADS-B
02:36PM 36.0204 -115.2784 199° South 275 316 6,900 2,760 Climbing FlightAware ADS-B
02:36PM 36.0049 -115.2852 200° South 276 318 7,500 2,700 Climbing FlightAware ADS-B
02:37PM 35.9815 -115.2959 200° South 277 319 8,400 2,580 Climbing FlightAware ADS-B (KVGT)
02:37PM 35.9364 -115.2769 123° Southeast 301 346 10,000 1,560 Climbing FlightAware ADS-B (KVGT)
02:38PM 35.9300 -115.2074 91° East 356 410 10,400 1,200 Climbing FlightAware ADS-B (KVGT)
02:39PM 35.9310 -115.1259 90° East 380 437 11,500 2,220 Climbing FlightAware ADS-B (KVGT)
02:39PM 35.9304 -115.0514 91° East 377 434 13,200 2,580 Climbing FlightAware ADS-B (KVGT)
02:40PM 35.9289 -114.9675 91° East 384 442 14,700 2,100 Climbing FlightAware ADS-B (KVGT)
02:40PM 35.9290 -114.8799 90° East 396 456 16,000 2,040 Climbing FlightAware ADS-B (KVGT)
02:42PM 35.9296 -114.7036 90° East 407 468 18,700 1,920 Climbing FlightAware ADS-B (KVGT)
02:42PM 35.9294 -114.6177 90° East 417 480 19,700 1,740 Climbing FlightAware ADS-B (KVGT)
02:43PM 35.9290 -114.5329 90° East 422 486 20,800 1,860 Climbing FlightAware ADS-B (KVGT)
02:43PM 35.9285 -114.4456 90° East 422 486 22,000 1,680 Climbing FlightAware ADS-B (KVGT)
02:44PM 35.9280 -114.3601 90° East 431 496 22,800 1,380 Climbing FlightAware ADS-B (KVGT)
02:45PM 35.9272 -114.2698 91° East 439 505 23,700 1,440 Climbing FlightAware ADS-B (KVGT)
02:45PM 35.9266 -114.1876 91° East 443 510 24,500 1,320 Climbing FlightAware ADS-B (KVGT)
02:46PM 35.9257 -114.0865 91° East 451 519 25,300 1,260 Climbing FlightAware ADS-B (KVGT)
02:46PM 35.9248 -113.9941 91° East 457 526 26,100 1,140 Climbing FlightAware ADS-B (KVGT)
02:49PM 35.8792 -113.6186 100° East 475 547 28,800 1,080 Climbing FlightAware ADS-B (KVGT)
02:49PM 35.8640 -113.5229 100° East 482 555 29,400 960 Climbing FlightAware ADS-B (KVGT)
02:50PM 35.8488 -113.4275 100° East 483 556 30,000 1,560 Climbing FlightAware ADS-B (KVGT)
02:51PM 35.8177 -113.2330 100° East 466 536 32,300 1,740 Climbing FlightAware ADS-B (KVGT)
02:52PM 35.8025 -113.1396 100° East 462 532 33,200 1,320 Climbing FlightAware ADS-B (KVGT)
02:52PM 35.7874 -113.0474 100° East 460 529 33,900 1,020 Climbing FlightAware ADS-B (KVGT)
02:54PM 35.7572 -112.8640 101° East 458 527 35,100 900 Climbing FlightAware ADS-B (KVGT)
02:54PM 35.7403 -112.7614 101° East 462 532 35,600 840 Climbing FlightAware ADS-B (KVGT)
02:55PM 35.7248 -112.6685 101° East 460 529 36,200 780 Climbing FlightAware ADS-B (KVGT)
02:56PM 35.6954 -112.4935 101° East 460 529 37,000 360 Climbing FlightAware ADS-B
02:57PM 35.6697 -112.3422 102° East 469 540 37,000  Level FlightAware ADS-B (KVGT)
02:58PM 35.6541 -112.2502 102° East 467 537 37,000  Level FlightAware ADS-B (KVGT)
02:58PM 35.6377 -112.1538 102° East 468 539 37,000  Level FlightAware ADS-B (KVGT)
02:59PM 35.6233 -112.0700 102° East 469 540 37,000  Level FlightAware ADS-B (KVGT)
03:00PM 35.5920 -111.8643 92° East 476 548 37,100  Climbing FlightAware ADS-B (KVGT)
03:01PM 35.5897 -111.7649 91° East 477 549 37,100 -120 Level FlightAware ADS-B (KVGT)
03:01PM 35.5869 -111.6636 92° East 477 549 37,000 -120 Descending FlightAware ADS-B (KVGT)
03:02PM 35.5839 -111.5615 92° East 477 549 37,000  Level FlightAware ADS-B (KVGT)
03:03PM 35.5812 -111.4690 92° East 477 549 37,000  Level FlightAware ADS-B (KVGT)
03:04PM 35.5753 -111.3108 92° East 479 551 37,000  Level Albuquerque Center
03:05PM 35.5711 -111.1547 92° East 479 551 37,000  Level Albuquerque Center
03:06PM 35.5644 -110.9711 93° East 479 551 37,000  Level Albuquerque Center
03:11PM 35.4893 -110.1642 97° East 479 551 37,000  Level FlightAware ADS-B (KABQ)
03:14PM 35.4321 -109.6265 98° East 478 550 37,000  Level FlightAware ADS-B (KABQ)
03:14PM 35.4235 -109.5468 98° East 479 551 37,000  Level FlightAware ADS-B (KABQ)
03:15PM 35.4140 -109.4612 98° East 479 551 37,000  Level FlightAware ADS-B (KABQ)
03:17PM 35.3829 -109.1824 98° East 481 554 37,000  Level FlightAware ADS-B (KABQ)
03:17PM 35.3643 -109.0715 109° East 477 549 37,000  Level FlightAware ADS-B (KABQ)
03:18PM 35.3200 -108.9352 112° Southeast 475 547 37,000  Level FlightAware ADS-B (KABQ)
03:19PM 35.2874 -108.8390 113° Southeast 474 545 37,000  Level FlightAware ADS-B (KABQ)
03:20PM 35.2515 -108.7357 113° Southeast 475 547 37,000  Level FlightAware ADS-B (KABQ)
03:20PM 35.2167 -108.6359 113° Southeast 474 545 37,000  Level FlightAware ADS-B (KABQ)
03:21PM 35.1963 -108.5780 113° Southeast 475 547 37,000  Level FlightAware ADS-B (KABQ)
03:22PM 35.1583 -108.4704 114° Southeast 476 548 37,000  Level FlightAware ADS-B (KABQ)
03:22PM 35.1291 -108.3877 110° East 478 550 37,000  Level FlightAware ADS-B (KABQ)
03:23PM 35.1042 -108.3031 109° East 478 550 37,000  Level FlightAware ADS-B (KABQ)
03:23PM 35.0718 -108.1856 108° East 479 551 37,000  Level FlightAware ADS-B (KABQ)
03:24PM 35.0447 -108.0850 108° East 478 550 37,000  Level FlightAware ADS-B (KABQ)
03:25PM 35.0222 -108.0015 109° East 478 550 37,000  Level FlightAware ADS-B (KABQ)
03:25PM 34.9994 -107.9027 96° East 481 554 37,000  Level FlightAware ADS-B (KABQ)
03:26PM 34.9937 -107.8214 95° East 480 552 37,000  Level FlightAware ADS-B (KABQ)
03:26PM 34.9848 -107.7090 96° East 480 552 37,000  Level FlightAware ADS-B (KABQ)
03:27PM 34.9764 -107.6059 96° East 480 552 37,000  Level FlightAware ADS-B (KABQ)
03:28PM 34.9677 -107.5003 96° East 481 554 37,000  Level FlightAware ADS-B (KABQ)
03:28PM 34.9608 -107.4159 96° East 480 552 37,000  Level FlightAware ADS-B (KABQ)
03:29PM 34.9518 -107.3080 96° East 480 552 37,000  Level FlightAware ADS-B (KABQ)
03:29PM 34.9443 -107.2184 96° East 481 554 37,000  Level FlightAware ADS-B (KABQ)
03:30PM 34.9368 -107.1289 96° East 482 555 37,000  Level FlightAware ADS-B (KANK)
03:30PM 34.9301 -107.0506 96° East 482 555 37,000  Level FlightAware ADS-B (KAEG)
03:31PM 34.9224 -106.9624 96° East 482 555 37,000  Level FlightAware ADS-B (KABQ)
03:32PM 34.9144 -106.8690 96° East 483 556 37,000  Level FlightAware ADS-B (KABQ)
03:32PM 34.9043 -106.7538 96° East 483 556 37,000  Level FlightAware ADS-B (KANK)
03:33PM 34.8969 -106.6700 96° East 483 556 37,000  Level FlightAware ADS-B (KAEG)
03:33PM 34.8890 -106.5813 96° East 483 556 37,000  Level FlightAware ADS-B (KANK)
03:34PM 34.8809 -106.4900 96° East 483 556 37,000  Level FlightAware ADS-B (KANK)
03:34PM 34.8735 -106.4093 96° East 483 556 37,000  Level FlightAware ADS-B (KANK)
03:35PM 34.8653 -106.3192 96° East 482 555 37,000  Level FlightAware ADS-B (KABQ)
03:36PM 34.8552 -106.2085 96° East 481 554 37,000  Level FlightAware ADS-B (KABQ)
03:36PM 34.8455 -106.1038 97° East 480 552 37,000  Level FlightAware ADS-B (KABQ)
03:37PM 34.8376 -106.0208 97° East 480 552 37,000  Level FlightAware ADS-B (KABQ)
03:37PM 34.8290 -105.9278 97° East 479 551 37,000  Level FlightAware ADS-B (KABQ)
03:38PM 34.8182 -105.8153 97° East 480 552 37,000  Level FlightAware ADS-B (KABQ)
03:39PM 34.8086 -105.7157 97° East 481 554 37,000  Level FlightAware ADS-B (KAEG)
03:39PM 34.8013 -105.6425 97° East 482 555 37,000  Level FlightAware ADS-B (KABQ)
03:40PM 34.7869 -105.4955 97° East 484 557 37,000  Level FlightAware ADS-B (KABQ)
03:42PM 34.7558 -105.1851 96° East 486 559 37,000  Level FlightAware ADS-B (KROW)
03:43PM 34.7413 -105.0425 97° East 484 557 37,000  Level FlightAware ADS-B (KROW)
03:43PM 34.7331 -104.9619 97° East 483 556 37,000  Level FlightAware ADS-B (KROW)
03:44PM 34.7228 -104.8610 97° East 481 554 37,000  Level FlightAware ADS-B (KROW)
03:45PM 34.7106 -104.7448 97° East 481 554 37,000  Level FlightAware ADS-B (KROW)
03:45PM 34.6986 -104.6302 97° East 479 551 37,000  Level FlightAware ADS-B (KROW)
03:46PM 34.6878 -104.5289 97° East 480 552 37,000  Level FlightAware ADS-B (KROW)
03:47PM 34.6782 -104.4400 97° East 480 552 37,000  Level FlightAware ADS-B (KROW)
03:47PM 34.6663 -104.3160 96° East 481 554 37,000  Level FlightAware ADS-B (KROW)
03:48PM 34.6547 -104.1976 96° East 482 555 37,000  Level FlightAware ADS-B (KROW)
03:49PM 34.6421 -104.0727 96° East 485 558 37,000  Level FlightAware ADS-B (KROW)
03:50PM 34.6298 -103.9508 96° East 487 560 37,000  Level FlightAware ADS-B (KROW)
03:51PM 34.6133 -103.7883 97° East 487 560 37,000  Level FlightAware ADS-B (KROW)
03:51PM 34.6012 -103.6728 97° East 488 562 37,000  Level FlightAware ADS-B (KROW)
03:52PM 34.5890 -103.5555 97° East 489 563 37,000  Level FlightAware ADS-B (KROW)
03:53PM 34.5848 -103.5149 97° East 489 563 37,000  Level FlightAware ADS-B (KROW)
03:57PM 34.4969 -102.7054 97° East 489 563 37,000  Level FlightAware ADS-B (KROW)
03:58PM 34.4767 -102.5267 97° East 488 562 37,000  Level FlightAware ADS-B (KROW)
03:59PM 34.4750 -102.5109 97° East 488 562 37,000  Level FlightAware ADS-B (KROW)
03:59PM 34.4579 -102.3623 97° East 488 562 37,000  Level FlightAware ADS-B (KROW)
04:00PM 34.4502 -102.2951 97° East 488 562 37,000  Level FlightAware ADS-B (KROW)
04:00PM 34.4438 -102.2398 97° East 488 562 37,000  Level FlightAware ADS-B (KROW)
04:01PM 34.4344 -102.1631 97° East 490 564 37,000  Level Fort Worth Center
04:02PM 34.4156 -102.0014 98° East 490 564 37,000  Level Fort Worth Center
04:03PM 34.3964 -101.8392 98° East 490 564 37,000  Level Fort Worth Center
04:04PM 34.3775 -101.6764 98° East 490 564 37,000  Level Fort Worth Center
04:05PM 34.3542 -101.4822 98° East 490 564 37,000  Level Fort Worth Center
04:06PM 34.3333 -101.3178 99° East 492 566 37,000  Level Fort Worth Center
04:07PM 34.3133 -101.1525 98° East 495 570 37,000  Level Fort Worth Center
04:08PM 34.2925 -100.9856 99° East 500 575 37,000  Level Fort Worth Center
04:09PM 34.2731 -100.8197 98° East 500 575 37,000  Level Fort Worth Center
04:10PM 34.2500 -100.6217 98° East 500 575 37,000  Level Fort Worth Center
04:11PM 34.2272 -100.4544 99° East 501 577 37,000  Level Fort Worth Center
04:12PM 34.1825 -100.2936 109° East 505 581 37,000 -300 Level Fort Worth Center
04:13PM 34.1417 -100.1297 107° East 506 582 36,400 -780 Descending Fort Worth Center
04:14PM 34.1011 -99.9692 107° East 505 581 35,400 -1,020 Descending Fort Worth Center
04:15PM 34.0600 -99.8083 107° East 503 579 34,400 -960 Descending Fort Worth Center
04:16PM 34.0186 -99.6419 107° East 511 588 33,400 -1,080 Descending Fort Worth Center
04:17PM 33.9675 -99.4439 107° East 514 592 32,200 -1,080 Descending Fort Worth Center
04:18PM 33.9264 -99.2817 107° East 507 583 31,200 -1,140 Descending Fort Worth Center
04:19PM 33.8833 -99.1169 107° East 511 588 29,900 -1,500 Descending Fort Worth Center
04:26PM 33.5586 -98.1392 112° Southeast 485 558 20,300 -1,680 Descending FlightAware ADS-B (KAFW)
04:27PM 33.4953 -97.9572 112° Southeast 448 516 17,800 -2,160 Descending FlightAware ADS-B (KAFW)
04:28PM 33.4551 -97.8424 112° Southeast 427 491 15,900 -2,340 Descending FlightAware ADS-B (KAFW)
04:28PM 33.4246 -97.7559 112° Southeast 415 478 14,300 -2,220 Descending FlightAware ADS-B (KAFW)
04:29PM 33.4027 -97.6936 112° Southeast 405 466 13,300 -2,160 Descending FlightAware ADS-B (KAFW)
04:30PM 33.3520 -97.6034 136° Southeast 391 450 11,500 -1,620 Descending FlightAware ADS-B (KAFW)
04:30PM 33.3041 -97.5476 135° Southeast 353 406 10,900 -540 Descending FlightAware ADS-B (KAFW)
04:31PM 33.2747 -97.5128 135° Southeast 316 364 10,900  Level FlightAware ADS-B (KAFW)
04:31PM 33.2297 -97.4595 135° Southeast 314 361 10,900  Level FlightAware ADS-B (KAFW)
04:32PM 33.1979 -97.4225 135° Southeast 311 358 10,900  Level FlightAware ADS-B (KAFW)
04:33PM 33.1573 -97.3751 135° Southeast 312 359 10,900  Level FlightAware ADS-B (KAFW)
04:33PM 33.1259 -97.3386 135° Southeast 312 359 10,900  Level FlightAware ADS-B (KAFW)
04:34PM 33.0939 -97.3014 135° Southeast 314 361 10,900  Level FlightAware ADS-B (KAFW)
04:34PM 33.0537 -97.2543 135° Southeast 316 364 10,900  Level FlightAware ADS-B (KAFW)
04:35PM 33.0213 -97.2166 135° Southeast 295 339 10,900  Level FlightAware ADS-B (KAFW)
04:35PM 32.9851 -97.1761 144° Southeast 270 311 10,900  Level FlightAware ADS-B (KAFW)
04:36PM 32.9714 -97.1701 170° South 268 308 10,900 -780 Level FlightAware ADS-B (KAFW)
04:36PM 32.9482 -97.1700 181° South 263 303 10,500 -1,320 Descending FlightAware ADS-B (KAFW)
04:36PM 32.9250 -97.1704 360° North 263 303 10,100 -1,260 Descending FlightAware ADS-B (KAFW)
04:36PM 32.9122 -97.1703 179° South 264 304 9,900 -1,200 Descending FlightAware ADS-B (KAFW)
04:37PM 32.8986 -97.1701 179° South 264 304 9,700 -1,440 Descending FlightAware ADS-B (KAFW)
04:37PM 32.8731 -97.1699 179° South 264 304 9,200 -1,080 Descending FlightAware ADS-B
04:37PM 32.8503 -97.1695 179° South 260 299 9,000 -900 Descending FlightAware ADS-B (KAFW)
04:38PM 32.8302 -97.1693 179° South 254 292 8,600 -1,200 Descending FlightAware ADS-B
04:38PM 32.8036 -97.1687 176° South 251 289 8,300 -1,080 Descending FlightAware ADS-B
04:38PM 32.7880 -97.1663 169° South 249 287 7,900 -1,740 Descending FlightAware ADS-B (KAFW)
04:39PM 32.7553 -97.1585 169° South 252 290 7,100 -2,100 Descending FlightAware ADS-B
04:39PM 32.7322 -97.1529 169° South 250 288 6,500 -1,680 Descending FlightAware ADS-B
04:39PM 32.7112 -97.1477 168° South 253 291 6,000 -1,380 Descending FlightAware ADS-B
04:40PM 32.6908 -97.1424 169° South 251 289 5,600 -1,200 Descending FlightAware ADS-B
04:40PM 32.6637 -97.1346 157° South 242 278 5,200 -1,020 Descending FlightAware ADS-B
04:40PM 32.6574 -97.1298 142° Southeast 234 269 5,100 -960 Descending FlightAware ADS-B (KAFW)
04:40PM 32.6502 -97.1184 119° Southeast 225 259 4,900 -900 Descending FlightAware ADS-B
04:40PM 32.6488 -97.1137 104° East 216 249 4,800 -1,320 Descending FlightAware ADS-B (KAFW)
04:41PM 32.6472 -97.0743 65° Northeast 186 214 4,000 -1,680 Descending FlightAware ADS-B
04:42PM 32.6743 -97.0572 North 176 203 2,900 -1,380 Descending FlightAware ADS-B
04:42PM 32.6862 -97.0562 North 169 194 2,700 -780 Descending FlightAware ADS-B
04:42PM 32.7060 -97.0558 North 169 194 2,400 -780 Descending FlightAware ADS-B
04:43PM 32.7213 -97.0557 360° North 166 191 2,200 -360 Descending FlightAware ADS-B
04:43PM 32.7348 -97.0557 North 169 194 2,200  Level FlightAware ADS-B
04:44PM 32.7643 -97.0555 North 168 193 2,200  Level FlightAware ADS-B
04:44PM 32.7832 -97.0554 104° East 216 249 2,200 -300 Level FlightAware ADS-B (KAFW)
04:44PM 32.7999 -97.0554 North 161 185 2,000 -900 Descending FlightAware ADS-B
04:45PM 32.8249 -97.0552 North 130 150 1,500 -600 Descending FlightAware ADS-B
04:46PM 32.8706 -97.0556 North 130 150 800 -540 Descending Fort Worth Center